createdAt,value
2023-05-19T00:00:07.183Z,102811.75
2023-05-19T00:00:38.969Z,102818.34
2023-05-19T00:01:13.546Z,102817.06
2023-05-19T00:01:48.231Z,102818.16
2023-05-19T00:02:21.015Z,102819.28
2023-05-19T00:02:52.761Z,102814.97
2023-05-19T00:03:24.860Z,102816.88
2023-05-19T00:03:59.030Z,102815.59
2023-05-19T00:04:30.844Z,102809.66
2023-05-19T00:05:02.556Z,102818.16
2023-05-19T00:05:36.449Z,102809.50
2023-05-19T00:06:11.089Z,102814.16
2023-05-19T00:06:46.613Z,102816.88
2023-05-19T00:07:21.444Z,102813.84
2023-05-19T00:07:58.694Z,102819.28
2023-05-19T00:08:32.194Z,102820.06
2023-05-19T00:09:09.391Z,102819.28
2023-05-19T00:09:41.204Z,102809.81
2023-05-19T00:10:13.223Z,102816.88
2023-05-19T00:10:44.977Z,102812.53
2023-05-19T00:11:16.762Z,102816.38
2023-05-19T00:11:48.482Z,102809.69
2023-05-19T00:12:20.236Z,102814.47
2023-05-19T00:12:53.780Z,102812.06
2023-05-19T00:13:25.918Z,102804.25
2023-05-19T00:13:59.497Z,102816.72
2023-05-19T00:14:31.198Z,102808.88
2023-05-19T00:15:02.944Z,102814.34
2023-05-19T00:15:35.400Z,102808.41
2023-05-19T00:16:07.218Z,102809.84
2023-05-19T00:16:39.145Z,102810.16
2023-05-19T00:17:10.920Z,102803.09
2023-05-19T00:17:42.567Z,102810.16
2023-05-19T00:18:14.443Z,102803.09
2023-05-19T00:18:47.564Z,102806.31
2023-05-19T00:19:19.181Z,102799.28
2023-05-19T00:19:50.695Z,102803.09
2023-05-19T00:20:22.400Z,102802.78
2023-05-19T00:20:53.839Z,102798.47
2023-05-19T00:21:25.935Z,102802.00
2023-05-19T00:21:57.562Z,102797.34
2023-05-19T00:22:29.096Z,102795.25
2023-05-19T00:23:00.600Z,102797.66
2023-05-19T00:23:31.998Z,102795.09
2023-05-19T00:24:03.954Z,102802.63
2023-05-19T00:24:35.404Z,102798.28
2023-05-19T00:25:07.456Z,102799.72
2023-05-19T00:25:38.848Z,102786.44
2023-05-19T00:26:10.574Z,102796.22
2023-05-19T00:26:42.124Z,102795.41
2023-05-19T00:27:13.490Z,102798.13
2023-05-19T00:27:45.006Z,102796.53
2023-05-19T00:28:16.493Z,102798.44
2023-05-19T00:28:48.342Z,102799.56
2023-05-19T00:29:19.815Z,102801.34
2023-05-19T00:29:51.350Z,102796.34
2023-05-19T00:30:23.039Z,102798.63
2023-05-19T00:30:55.518Z,102793.97
2023-05-19T00:31:27.150Z,102795.59
2023-05-19T00:31:58.711Z,102800.53
2023-05-19T00:32:30.339Z,102797.81
2023-05-19T00:33:01.849Z,102801.34
2023-05-19T00:33:34.065Z,102802.16
2023-05-19T00:34:05.625Z,102799.75
2023-05-19T00:34:37.094Z,102804.88
2023-05-19T00:35:08.805Z,102797.03
2023-05-19T00:35:40.925Z,102800.88
2023-05-19T00:36:13.067Z,102796.53
2023-05-19T00:36:44.972Z,102798.44
2023-05-19T00:37:16.370Z,102797.66
2023-05-19T00:37:48.793Z,102796.03
2023-05-19T00:38:20.325Z,102793.16
2023-05-19T00:38:51.917Z,102789.94
2023-05-19T00:39:23.406Z,102797.78
2023-05-19T00:39:54.874Z,102788.34
2023-05-19T00:40:27.258Z,102790.25
2023-05-19T00:40:59.509Z,102796.19
2023-05-19T00:41:31.035Z,102794.59
2023-05-19T00:42:02.878Z,102796.50
2023-05-19T00:42:34.319Z,102785.16
2023-05-19T00:43:05.888Z,102793.63
2023-05-19T00:43:37.326Z,102794.72
2023-05-19T00:44:08.850Z,102792.00
2023-05-19T00:44:41.897Z,102792.34
2023-05-19T00:45:13.393Z,102791.56
2023-05-19T00:45:45.602Z,102795.41
2023-05-19T00:46:17.136Z,102792.19
2023-05-19T00:46:48.698Z,102793.78
2023-05-19T00:47:20.156Z,102789.78
2023-05-19T00:47:51.738Z,102794.91
2023-05-19T00:48:24.711Z,102787.88
2023-05-19T00:48:56.290Z,102792.00
2023-05-19T00:49:27.763Z,102790.72
2023-05-19T00:49:59.539Z,102791.53
2023-05-19T00:50:31.783Z,102789.44
2023-05-19T00:51:06.251Z,102795.69
2023-05-19T00:51:37.846Z,102791.34
2023-05-19T00:52:09.395Z,102790.25
2023-05-19T00:52:40.924Z,102797.28
2023-05-19T00:53:14.378Z,102789.44
2023-05-19T00:53:49.081Z,102803.03
2023-05-19T00:54:21.315Z,102804.16
2023-05-19T00:54:53.857Z,102793.59
2023-05-19T00:55:29.194Z,102789.25
2023-05-19T00:56:02.149Z,102793.59
2023-05-19T00:56:33.893Z,102789.56
2023-05-19T00:57:05.594Z,102790.38
2023-05-19T00:57:38.369Z,102786.84
2023-05-19T00:58:11.711Z,102788.47
2023-05-19T00:58:43.804Z,102787.97
2023-05-19T00:59:16.048Z,102791.50
2023-05-19T00:59:48.628Z,102793.09
2023-05-19T01:00:20.860Z,102786.72
2023-05-19T01:00:52.969Z,102792.63
2023-05-19T01:01:26.820Z,102784.00
2023-05-19T01:01:58.649Z,102798.84
2023-05-19T01:02:30.156Z,102782.88
2023-05-19T01:03:01.769Z,102781.59
2023-05-19T01:03:35.639Z,102797.91
2023-05-19T01:04:10.095Z,102788.78
2023-05-19T01:04:43.771Z,102797.09
2023-05-19T01:05:15.343Z,102787.97
2023-05-19T01:05:47.599Z,102785.56
2023-05-19T01:06:19.183Z,102795.31
2023-05-19T01:06:57.317Z,102789.41
2023-05-19T01:07:28.988Z,102792.13
2023-05-19T01:08:00.837Z,102792.13
2023-05-19T01:08:33.550Z,102787.78
2023-05-19T01:09:04.982Z,102797.06
2023-05-19T01:09:37.345Z,102791.94
2023-05-19T01:10:09.719Z,102796.09
2023-05-19T01:10:41.196Z,102798.50
2023-05-19T01:11:12.756Z,102798.50
2023-05-19T01:11:44.180Z,102797.19
2023-05-19T01:12:16.189Z,102795.13
2023-05-19T01:12:48.688Z,102792.41
2023-05-19T01:13:20.275Z,102797.06
2023-05-19T01:13:51.832Z,102793.34
2023-05-19T01:14:23.579Z,102797.69
2023-05-19T01:14:56.262Z,102796.06
2023-05-19T01:15:28.755Z,102797.19
2023-05-19T01:16:09.989Z,102802.81
2023-05-19T01:16:47.477Z,102800.09
2023-05-19T01:17:36.805Z,102802.00
2023-05-19T01:18:14.238Z,102804.41
2023-05-19T01:19:14.283Z,102798.16
2023-05-19T01:19:51.616Z,102800.09
2023-05-19T01:20:38.698Z,102796.56
2023-05-19T01:21:30.473Z,102798.16
2023-05-19T01:22:27.021Z,102795.44
2023-05-19T01:23:21.562Z,102794.66
2023-05-19T01:24:11.455Z,102795.75
2023-05-19T01:25:08.811Z,102800.09
2023-05-19T01:26:12.913Z,102796.38
2023-05-19T01:27:09.283Z,102794.78
2023-05-19T01:28:09.569Z,102798.63
2023-05-19T01:29:08.957Z,102801.34
2023-05-19T01:30:17.322Z,102792.69
2023-05-19T01:30:53.843Z,102787.56
2023-05-19T01:31:26.146Z,102789.47
2023-05-19T01:32:00.767Z,102799.56
2023-05-19T01:32:34.657Z,102790.28
2023-05-19T01:33:09.761Z,102795.19
2023-05-19T01:33:43.589Z,102784.63
2023-05-19T01:34:17.042Z,102792.78
2023-05-19T01:34:50.851Z,102785.44
2023-05-19T01:35:26.086Z,102790.88
2023-05-19T01:35:59.609Z,102795.50
2023-05-19T01:36:32.374Z,102787.34
2023-05-19T01:37:04.963Z,102784.16
2023-05-19T01:37:38.688Z,102781.44
2023-05-19T01:38:12.022Z,102782.22
2023-05-19T01:38:45.266Z,102784.16
2023-05-19T01:39:17.198Z,102779.06
2023-05-19T01:39:49.120Z,102785.91
2023-05-19T01:40:22.009Z,102783.19
2023-05-19T01:40:54.949Z,102776.97
2023-05-19T01:41:28.532Z,102775.34
2023-05-19T01:42:01.561Z,102775.66
2023-05-19T01:42:37.288Z,102775.34
2023-05-19T01:43:15.537Z,102774.25
2023-05-19T01:43:48.010Z,102776.47
2023-05-19T01:44:19.988Z,102778.06
2023-05-19T01:44:52.315Z,102774.53
2023-05-19T01:45:24.323Z,102772.63
2023-05-19T01:45:58.662Z,102780.00
2023-05-19T01:46:30.307Z,102776.97
2023-05-19T01:47:02.664Z,102780.78
2023-05-19T01:47:38.407Z,102776.78
2023-05-19T01:48:11.178Z,102776.78
2023-05-19T01:48:44.760Z,102777.56
2023-05-19T01:49:16.257Z,102781.09
2023-05-19T01:49:47.701Z,102777.56
2023-05-19T01:50:19.653Z,102784.13
2023-05-19T01:50:51.548Z,102780.59
2023-05-19T01:51:23.029Z,102774.06
2023-05-19T01:51:54.616Z,102784.44
2023-05-19T01:52:26.079Z,102771.47
2023-05-19T01:52:58.259Z,102787.97
2023-05-19T01:53:29.784Z,102780.13
2023-05-19T01:54:01.233Z,102776.91
2023-05-19T01:54:33.022Z,102780.44
2023-05-19T01:55:05.406Z,102770.66
2023-05-19T01:55:44.146Z,102781.84
2023-05-19T01:56:26.732Z,102781.84
2023-05-19T01:57:15.883Z,102779.13
2023-05-19T01:58:05.902Z,102774.81
2023-05-19T01:58:45.871Z,102778.63
2023-05-19T01:59:30.028Z,102773.50
2023-05-19T02:00:17.183Z,102773.84
2023-05-19T02:01:03.239Z,102769.84
2023-05-19T02:01:49.410Z,102770.66
2023-05-19T02:02:32.729Z,102770.97
2023-05-19T02:03:30.788Z,102768.25
2023-05-19T02:04:18.518Z,102765.03
2023-05-19T02:04:57.504Z,102765.03
2023-05-19T02:05:43.173Z,102768.88
2023-05-19T02:06:39.619Z,102768.88
2023-05-19T02:07:25.293Z,102769.47
2023-05-19T02:08:42.725Z,102773.81
2023-05-19T02:09:42.038Z,102779.53
2023-05-19T02:10:23.682Z,102770.09
2023-05-19T02:11:00.656Z,102768.50
2023-05-19T02:11:42.248Z,102772.63
2023-05-19T02:12:32.540Z,102770.72
2023-05-19T02:13:06.917Z,102771.84
2023-05-19T02:13:43.867Z,102772.13
2023-05-19T02:14:20.533Z,102771.84
2023-05-19T02:15:01.894Z,102771.03
2023-05-19T02:15:42.148Z,102765.59
2023-05-19T02:16:14.907Z,102776.00
2023-05-19T02:16:48.759Z,102770.06
2023-05-19T02:17:20.881Z,102776.00
2023-05-19T02:17:54.493Z,102779.03
2023-05-19T02:18:29.967Z,102770.88
2023-05-19T02:19:01.475Z,102777.41
2023-05-19T02:19:37.077Z,102773.09
2023-05-19T02:20:09.477Z,102770.38
2023-05-19T02:20:40.906Z,102770.38
2023-05-19T02:21:13.518Z,102772.59
2023-05-19T02:21:45.053Z,102771.00
2023-05-19T02:22:16.602Z,102775.63
2023-05-19T02:22:48.422Z,102772.09
2023-05-19T02:23:19.919Z,102775.63
2023-05-19T02:23:51.348Z,102772.09
2023-05-19T02:24:23.176Z,102773.22
2023-05-19T02:24:56.500Z,102769.41
2023-05-19T02:25:28.007Z,102766.19
2023-05-19T02:25:59.505Z,102768.59
2023-05-19T02:26:30.979Z,102765.38
2023-05-19T02:27:02.720Z,102765.06
2023-05-19T02:27:35.294Z,102764.56
2023-05-19T02:28:06.772Z,102761.56
2023-05-19T02:28:38.278Z,102764.56
2023-05-19T02:29:09.764Z,102763.47
2023-05-19T02:29:41.461Z,102763.78
2023-05-19T02:30:13.095Z,102762.66
2023-05-19T02:30:44.548Z,102761.88
2023-05-19T02:31:16.169Z,102761.06
2023-05-19T02:31:48.073Z,102761.38
2023-05-19T02:32:20.762Z,102767.59
2023-05-19T02:32:54.188Z,102763.78
2023-05-19T02:33:27.516Z,102762.97
2023-05-19T02:33:59.055Z,102760.56
2023-05-19T02:34:30.639Z,102766.00
2023-05-19T02:35:02.941Z,102758.16
2023-05-19T02:35:34.516Z,102760.56
2023-05-19T02:36:06.512Z,102756.56
2023-05-19T02:36:41.389Z,102760.38
2023-05-19T02:37:16.934Z,102757.66
2023-05-19T02:37:48.396Z,102761.03
2023-05-19T02:38:19.965Z,102761.81
2023-05-19T02:38:51.690Z,102757.50
2023-05-19T02:39:23.421Z,102766.47
2023-05-19T02:39:55.395Z,102756.72
2023-05-19T02:40:26.978Z,102758.94
2023-05-19T02:40:58.628Z,102755.72
2023-05-19T02:41:30.786Z,102747.56
2023-05-19T02:42:02.230Z,102756.81
2023-05-19T02:42:33.680Z,102746.28
2023-05-19T02:43:05.092Z,102754.91
2023-05-19T02:43:36.580Z,102749.78
2023-05-19T02:44:08.121Z,102759.53
2023-05-19T02:44:39.580Z,102752.50
2023-05-19T02:45:11.497Z,102754.13
2023-05-19T02:45:43.048Z,102750.59
2023-05-19T02:46:14.565Z,102747.38
2023-05-19T02:46:46.215Z,102752.81
2023-05-19T02:47:17.829Z,102751.72
2023-05-19T02:47:49.298Z,102749.78
2023-05-19T02:48:20.777Z,102755.22
2023-05-19T02:48:52.744Z,102749.31
2023-05-19T02:49:24.188Z,102742.25
2023-05-19T02:49:55.737Z,102744.97
2023-05-19T02:50:27.255Z,102748.81
2023-05-19T02:50:58.824Z,102735.84
2023-05-19T02:51:30.494Z,102743.38
2023-05-19T02:52:03.269Z,102743.69
2023-05-19T02:52:34.779Z,102742.06
2023-05-19T02:53:06.314Z,102751.03
2023-05-19T02:53:37.859Z,102743.69
2023-05-19T02:54:09.350Z,102745.91
2023-05-19T02:54:40.860Z,102744.00
2023-05-19T02:55:17.033Z,102744.59
2023-05-19T02:55:48.586Z,102742.38
2023-05-19T02:56:20.057Z,102738.72
2023-05-19T02:56:51.553Z,102745.75
2023-05-19T02:57:23.091Z,102739.50
2023-05-19T02:57:54.705Z,102740.63
2023-05-19T02:58:26.189Z,102739.03
2023-05-19T02:58:58.486Z,102738.72
2023-05-19T02:59:30.027Z,102740.63
2023-05-19T03:00:01.737Z,102738.22
2023-05-19T03:00:33.533Z,102744.13
2023-05-19T03:01:05.370Z,102737.91
2023-05-19T03:01:37.818Z,102738.72
2023-05-19T03:02:09.640Z,102737.09
2023-05-19T03:02:41.418Z,102737.41
2023-05-19T03:03:13.823Z,102740.94
2023-05-19T03:03:45.494Z,102731.97
2023-05-19T03:04:20.110Z,102735.50
2023-05-19T03:04:51.583Z,102739.31
2023-05-19T03:05:23.005Z,102738.22
2023-05-19T03:05:54.688Z,102740.94
2023-05-19T03:06:26.225Z,102731.97
2023-05-19T03:06:57.778Z,102729.28
2023-05-19T03:07:29.546Z,102739.03
2023-05-19T03:08:01.067Z,102732.78
2023-05-19T03:08:32.601Z,102736.00
2023-05-19T03:09:04.056Z,102732.78
2023-05-19T03:09:37.280Z,102734.38
2023-05-19T03:10:09.109Z,102732.47
2023-05-19T03:10:40.641Z,102732.78
2023-05-19T03:11:12.070Z,102733.59
2023-05-19T03:11:43.536Z,102731.97
2023-05-19T03:12:15.187Z,102720.63
2023-05-19T03:12:46.623Z,102725.75
2023-05-19T03:13:18.128Z,102724.16
2023-05-19T03:13:49.597Z,102731.97
2023-05-19T03:14:23.873Z,102732.78
2023-05-19T03:14:55.820Z,102733.91
2023-05-19T03:15:27.306Z,102735.31
2023-05-19T03:15:59.254Z,102732.91
2023-05-19T03:16:31.389Z,102725.56
2023-05-19T03:17:03.293Z,102730.19
2023-05-19T03:17:36.271Z,102727.78
2023-05-19T03:18:07.935Z,102726.38
2023-05-19T03:18:39.539Z,102732.91
2023-05-19T03:19:11.118Z,102731.28
2023-05-19T03:19:42.675Z,102732.09
2023-05-19T03:20:15.818Z,102730.00
2023-05-19T03:20:47.268Z,102736.22
2023-05-19T03:21:18.817Z,102720.56
2023-05-19T03:21:50.824Z,102738.94
2023-05-19T03:22:22.276Z,102731.91
2023-05-19T03:22:53.698Z,102727.59
2023-05-19T03:23:26.478Z,102738.44
2023-05-19T03:23:57.970Z,102732.53
2023-05-19T03:24:29.555Z,102734.94
2023-05-19T03:25:01.046Z,102738.75
2023-05-19T03:25:32.479Z,102732.53
2023-05-19T03:26:04.267Z,102729.81
2023-05-19T03:26:35.869Z,102732.53
2023-05-19T03:27:07.307Z,102730.13
2023-05-19T03:27:38.800Z,102724.53
2023-05-19T03:28:10.277Z,102733.94
2023-05-19T03:28:41.967Z,102732.34
2023-05-19T03:29:13.463Z,102738.91
2023-05-19T03:29:44.984Z,102733.78
2023-05-19T03:30:16.525Z,102727.56
2023-05-19T03:30:50.706Z,102733.78
2023-05-19T03:31:22.271Z,102727.56
2023-05-19T03:31:53.783Z,102731.06
2023-05-19T03:32:25.570Z,102735.69
2023-05-19T03:32:57.250Z,102737.59
2023-05-19T03:33:29.916Z,102730.25
2023-05-19T03:34:02.127Z,102734.09
2023-05-19T03:34:33.862Z,102728.97
2023-05-19T03:35:05.935Z,102740.94
2023-05-19T03:35:37.480Z,102728.47
2023-05-19T03:36:09.055Z,102733.59
2023-05-19T03:36:40.557Z,102733.09
2023-05-19T03:37:12.930Z,102726.06
2023-05-19T03:37:44.430Z,102726.06
2023-05-19T03:38:16.104Z,102731.50
2023-05-19T03:38:47.557Z,102731.50
2023-05-19T03:39:19.886Z,102727.47
2023-05-19T03:39:51.386Z,102733.72
2023-05-19T03:40:23.032Z,102732.91
2023-05-19T03:40:54.619Z,102728.59
2023-05-19T03:41:26.108Z,102725.88
2023-05-19T03:41:57.563Z,102729.09
2023-05-19T03:42:29.048Z,102728.59
2023-05-19T03:43:01.175Z,102726.66
2023-05-19T03:43:32.645Z,102729.69
2023-05-19T03:44:04.293Z,102723.47
2023-05-19T03:44:35.806Z,102726.66
2023-05-19T03:45:07.807Z,102729.69
2023-05-19T03:45:39.324Z,102725.88
2023-05-19T03:46:10.860Z,102728.59
2023-05-19T03:46:42.428Z,102721.56
2023-05-19T03:47:13.892Z,102725.88
2023-05-19T03:47:46.731Z,102726.97
2023-05-19T03:48:20.460Z,102728.59
2023-05-19T03:48:52.785Z,102726.97
2023-05-19T03:49:24.298Z,102722.66
2023-05-19T03:49:56.049Z,102725.88
2023-05-19T03:50:29.072Z,102721.84
2023-05-19T03:51:00.542Z,102729.50
2023-05-19T03:51:32.161Z,102725.69
2023-05-19T03:52:03.966Z,102723.28
2023-05-19T03:52:36.279Z,102720.56
2023-05-19T03:53:08.180Z,102723.28
2023-05-19T03:53:39.783Z,102729.19
2023-05-19T03:54:11.262Z,102729.50
2023-05-19T03:54:43.186Z,102729.50
2023-05-19T03:55:14.839Z,102726.28
2023-05-19T03:55:47.592Z,102725.53
2023-05-19T03:56:20.800Z,102729.81
2023-05-19T03:56:52.424Z,102727.09
2023-05-19T03:57:23.973Z,102729.00
2023-05-19T03:57:56.646Z,102722.00
2023-05-19T03:58:30.081Z,102727.09
2023-05-19T03:59:01.582Z,102728.69
2023-05-19T03:59:33.274Z,102725.53
2023-05-19T04:00:09.067Z,102726.28
2023-05-19T04:00:40.857Z,102731.72
2023-05-19T04:01:12.398Z,102723.09
2023-05-19T04:01:43.872Z,102733.47
2023-05-19T04:02:16.638Z,102738.59
2023-05-19T04:02:48.683Z,102722.09
2023-05-19T04:03:21.039Z,102725.31
2023-05-19T04:03:52.749Z,102734.56
2023-05-19T04:04:24.297Z,102734.56
2023-05-19T04:04:56.102Z,102739.69
2023-05-19T04:05:27.839Z,102744.00
2023-05-19T04:05:59.336Z,102735.88
2023-05-19T04:06:31.122Z,102739.38
2023-05-19T04:07:02.863Z,102736.97
2023-05-19T04:07:34.374Z,102728.84
2023-05-19T04:08:06.190Z,102737.78
2023-05-19T04:08:37.764Z,102734.25
2023-05-19T04:09:14.301Z,102731.84
2023-05-19T04:09:46.224Z,102736.16
2023-05-19T04:10:18.961Z,102734.56
2023-05-19T04:10:50.485Z,102732.66
2023-05-19T04:11:22.007Z,102738.88
2023-05-19T04:11:53.607Z,102731.56
2023-05-19T04:12:25.284Z,102735.38
2023-05-19T04:12:56.919Z,102731.06
2023-05-19T04:13:28.421Z,102735.38
2023-05-19T04:14:00.160Z,102743.50
2023-05-19T04:14:31.627Z,102737.59
2023-05-19T04:15:03.298Z,102734.25
2023-05-19T04:15:34.995Z,102734.75
2023-05-19T04:16:07.336Z,102737.47
2023-05-19T04:16:38.944Z,102733.16
2023-05-19T04:17:10.683Z,102735.88
2023-05-19T04:17:42.635Z,102731.56
2023-05-19T04:18:14.278Z,102731.56
2023-05-19T04:18:46.416Z,102739.38
2023-05-19T04:19:18.203Z,102734.75
2023-05-19T04:19:49.685Z,102741.78
2023-05-19T04:20:21.271Z,102731.56
2023-05-19T04:20:52.730Z,102730.94
2023-05-19T04:21:24.270Z,102733.66
2023-05-19T04:21:57.012Z,102731.72
2023-05-19T04:22:28.506Z,102734.44
2023-05-19T04:23:00.036Z,102735.56
2023-05-19T04:23:32.617Z,102732.84
2023-05-19T04:24:06.350Z,102731.72
2023-05-19T04:24:37.928Z,102730.13
2023-05-19T04:25:09.728Z,102735.72
2023-05-19T04:25:42.215Z,102724.38
2023-05-19T04:26:14.980Z,102736.53
2023-05-19T04:26:47.385Z,102730.31
2023-05-19T04:27:19.001Z,102737.34
2023-05-19T04:27:50.608Z,102736.53
2023-05-19T04:28:23.964Z,102734.00
2023-05-19T04:28:56.572Z,102738.31
2023-05-19T04:29:29.541Z,102732.09
2023-05-19T04:30:01.031Z,102737.53
2023-05-19T04:30:33.482Z,102739.13
2023-05-19T04:31:10.590Z,102739.94
2023-05-19T04:31:42.424Z,102740.75
2023-05-19T04:32:17.526Z,102739.94
2023-05-19T04:32:52.117Z,102741.53
2023-05-19T04:33:23.684Z,102736.13
2023-05-19T04:33:55.172Z,102738.53
2023-05-19T04:34:28.661Z,102736.91
2023-05-19T04:35:00.306Z,102737.22
2023-05-19T04:35:31.856Z,102733.09
2023-05-19T04:36:08.397Z,102735.00
2023-05-19T04:36:39.890Z,102739.31
2023-05-19T04:37:16.821Z,102736.31
2023-05-19T04:37:48.540Z,102733.09
2023-05-19T04:38:20.192Z,102734.09
2023-05-19T04:38:54.783Z,102735.19
2023-05-19T04:39:26.190Z,102742.22
2023-05-19T04:39:57.626Z,102728.97
2023-05-19T04:40:31.102Z,102738.72
2023-05-19T04:41:06.327Z,102737.91
2023-05-19T04:41:40.352Z,102734.69
2023-05-19T04:42:12.211Z,102736.31
2023-05-19T04:42:45.703Z,102744.94
2023-05-19T04:43:18.069Z,102740.63
2023-05-19T04:43:50.061Z,102737.09
2023-05-19T04:44:21.560Z,102737.09
2023-05-19T04:44:53.035Z,102741.13
2023-05-19T04:45:26.069Z,102736.00
2023-05-19T04:45:58.281Z,102747.34
2023-05-19T04:46:30.282Z,102741.91
2023-05-19T04:47:02.142Z,102741.44
2023-05-19T04:47:36.746Z,102744.63
2023-05-19T04:48:08.756Z,102742.41
2023-05-19T04:48:40.981Z,102740.81
2023-05-19T04:49:12.575Z,102746.72
2023-05-19T04:49:44.005Z,102741.78
2023-05-19T04:50:16.353Z,102741.47
2023-05-19T04:50:48.963Z,102739.88
2023-05-19T04:51:21.119Z,102741.16
2023-05-19T04:51:55.511Z,102741.47
2023-05-19T04:52:27.824Z,102745.47
2023-05-19T04:52:59.312Z,102743.56
2023-05-19T04:53:31.275Z,102746.78
2023-05-19T04:54:03.294Z,102746.47
2023-05-19T04:54:35.507Z,102739.94
2023-05-19T04:55:07.653Z,102745.06
2023-05-19T04:55:39.186Z,102750.19
2023-05-19T04:56:13.742Z,102745.06
2023-05-19T04:56:45.186Z,102745.88
2023-05-19T04:57:16.629Z,102736.91
2023-05-19T04:57:48.000Z,102740.13
2023-05-19T04:58:19.748Z,102754.19
2023-05-19T04:58:51.447Z,102749.06
2023-05-19T04:59:23.259Z,102747.66
2023-05-19T04:59:59.794Z,102751.63
2023-05-19T05:00:31.660Z,102745.09
2023-05-19T05:01:03.822Z,102746.69
2023-05-19T05:01:40.204Z,102751.34
2023-05-19T05:02:12.104Z,102749.91
2023-05-19T05:02:43.917Z,102749.09
2023-05-19T05:03:16.371Z,102748.00
2023-05-19T05:03:47.843Z,102750.72
2023-05-19T05:04:22.005Z,102744.66
2023-05-19T05:04:54.452Z,102749.31
2023-05-19T05:05:25.942Z,102750.91
2023-05-19T05:05:58.595Z,102747.06
2023-05-19T05:06:31.628Z,102741.47
2023-05-19T05:07:03.257Z,102742.44
2023-05-19T05:07:34.810Z,102750.28
2023-05-19T05:08:07.023Z,102749.19
2023-05-19T05:08:40.453Z,102743.75
2023-05-19T05:09:11.896Z,102744.84
2023-05-19T05:09:43.310Z,102748.38
2023-05-19T05:10:15.284Z,102740.53
2023-05-19T05:10:46.801Z,102751.59
2023-05-19T05:11:18.454Z,102750.47
2023-05-19T05:11:51.468Z,102753.19
2023-05-19T05:12:23.459Z,102749.06
2023-05-19T05:12:55.257Z,102745.53
2023-05-19T05:13:27.021Z,102752.53
2023-05-19T05:13:58.658Z,102749.53
2023-05-19T05:14:30.395Z,102755.75
2023-05-19T05:15:02.159Z,102752.72
2023-05-19T05:15:35.478Z,102755.13
2023-05-19T05:16:08.433Z,102747.78
2023-05-19T05:16:40.752Z,102758.03
2023-05-19T05:17:13.057Z,102760.44
2023-05-19T05:17:45.114Z,102751.19
2023-05-19T05:18:16.833Z,102750.06
2023-05-19T05:18:48.589Z,102757.13
2023-05-19T05:19:22.155Z,102757.28
2023-05-19T05:19:54.090Z,102758.91
2023-05-19T05:20:26.426Z,102755.84
2023-05-19T05:20:58.062Z,102752.81
2023-05-19T05:21:29.693Z,102755.22
2023-05-19T05:22:01.564Z,102754.59
2023-05-19T05:22:33.592Z,102755.41
2023-05-19T05:23:05.314Z,102757.00
2023-05-19T05:23:37.020Z,102753.50
2023-05-19T05:24:09.410Z,102751.25
2023-05-19T05:24:41.062Z,102751.44
2023-05-19T05:25:13.392Z,102748.25
2023-05-19T05:25:46.961Z,102755.78
2023-05-19T05:26:20.197Z,102751.94
2023-05-19T05:26:51.927Z,102752.44
2023-05-19T05:27:23.434Z,102754.03
2023-05-19T05:27:54.866Z,102757.56
2023-05-19T05:28:26.280Z,102756.41
2023-05-19T05:28:57.721Z,102743.16
2023-05-19T05:29:29.113Z,102752.88
2023-05-19T05:30:00.624Z,102747.16
2023-05-19T05:30:34.003Z,102756.09
2023-05-19T05:31:05.515Z,102749.88
2023-05-19T05:31:37.608Z,102753.06
2023-05-19T05:32:09.131Z,102750.66
2023-05-19T05:32:40.885Z,102749.56
2023-05-19T05:33:12.478Z,102755.16
2023-05-19T05:33:44.601Z,102752.94
2023-05-19T05:34:16.290Z,102753.25
2023-05-19T05:34:47.765Z,102756.47
2023-05-19T05:35:22.166Z,102749.41
2023-05-19T05:35:53.610Z,102747.50
2023-05-19T05:36:25.107Z,102750.41
2023-05-19T05:36:56.477Z,102748.00
2023-05-19T05:37:27.885Z,102743.84
2023-05-19T05:37:59.854Z,102744.16
2023-05-19T05:38:31.403Z,102746.56
2023-05-19T05:39:02.888Z,102745.47
2023-05-19T05:39:34.860Z,102746.75
2023-05-19T05:40:07.085Z,102747.56
2023-05-19T05:40:38.550Z,102753.28
2023-05-19T05:41:09.985Z,102746.75
2023-05-19T05:41:41.421Z,102742.91
2023-05-19T05:42:12.843Z,102744.84
2023-05-19T05:42:44.354Z,102746.75
2023-05-19T05:43:15.783Z,102743.72
2023-05-19T05:43:47.196Z,102746.91
2023-05-19T05:44:18.631Z,102750.09
2023-05-19T05:44:50.040Z,102746.59
2023-05-19T05:45:23.102Z,102753.34
2023-05-19T05:45:54.525Z,102753.34
2023-05-19T05:46:26.065Z,102758.16
2023-05-19T05:46:57.928Z,102757.84
2023-05-19T05:47:29.520Z,102752.09
2023-05-19T05:48:01.326Z,102753.69
2023-05-19T05:48:33.167Z,102756.59
2023-05-19T05:49:04.797Z,102757.38
2023-05-19T05:49:38.142Z,102754.34
2023-05-19T05:50:10.688Z,102750.19
2023-05-19T05:50:44.512Z,102750.97
2023-05-19T05:51:16.277Z,102755.31
2023-05-19T05:51:54.579Z,102755.31
2023-05-19T05:52:35.840Z,102753.69
2023-05-19T05:53:08.890Z,102750.66
2023-05-19T05:53:49.679Z,102748.75
2023-05-19T05:54:24.846Z,102753.56
2023-05-19T05:54:56.880Z,102761.41
2023-05-19T05:55:28.703Z,102756.47
2023-05-19T05:56:00.406Z,102755.34
2023-05-19T05:56:33.759Z,102760.94
2023-05-19T05:57:05.664Z,102756.81
2023-05-19T05:57:37.121Z,102758.88
2023-05-19T05:58:11.037Z,102749.09
2023-05-19T05:58:42.451Z,102762.06
2023-05-19T05:59:13.895Z,102755.50
2023-05-19T05:59:47.009Z,102752.97
2023-05-19T06:00:19.218Z,102754.56
2023-05-19T06:00:51.530Z,102748.00
2023-05-19T06:01:23.914Z,102750.09
2023-05-19T06:01:55.436Z,102753.31
2023-05-19T06:02:28.303Z,102743.72
2023-05-19T06:02:59.968Z,102746.44
2023-05-19T06:03:31.950Z,102745.78
2023-05-19T06:04:03.592Z,102749.78
2023-05-19T06:04:34.971Z,102749.78
2023-05-19T06:05:06.651Z,102752.97
2023-05-19T06:05:38.342Z,102750.75
2023-05-19T06:06:10.726Z,102752.34
2023-05-19T06:06:42.170Z,102758.28
2023-05-19T06:07:13.562Z,102754.75
2023-05-19T06:07:45.097Z,102756.66
2023-05-19T06:08:17.715Z,102747.72
2023-05-19T06:08:49.255Z,102750.09
2023-05-19T06:09:20.668Z,102744.66
2023-05-19T06:09:52.118Z,102752.19
2023-05-19T06:10:23.529Z,102757.31
2023-05-19T06:10:55.032Z,102756.69
2023-05-19T06:11:26.537Z,102753.31
2023-05-19T06:11:59.064Z,102751.38
2023-05-19T06:12:30.696Z,102749.13
2023-05-19T06:13:02.101Z,102749.31
2023-05-19T06:13:34.197Z,102757.16
2023-05-19T06:14:05.744Z,102759.56
2023-05-19T06:14:37.193Z,102755.09
2023-05-19T06:15:09.214Z,102749.81
2023-05-19T06:15:41.351Z,102757.78
2023-05-19T06:16:12.947Z,102759.06
2023-05-19T06:16:44.419Z,102756.81
2023-05-19T06:17:16.391Z,102754.59
2023-05-19T06:17:47.884Z,102761.63
2023-05-19T06:18:19.368Z,102758.91
2023-05-19T06:18:50.898Z,102761.00
2023-05-19T06:19:22.388Z,102765.00